Portada
METAR-TAF:

METAR-TAF

Aeroports :

Francis S. Gabreski Airport

Westhampton Beach, Nova York, Estats Units d'Amèrica

latitud: 40-51-03N, longitud: 072-37-14W, altitud: 20 m

Observació

L'informe es va fer fa 44 minuts, a les 17:53 UTC
Vent 4 kt amb direcció variable
Temperatura 17°C
Humitat 77%
Pressió 1025 hPa
Visibilitat: 16.1 km
Cel cobert a una alçada de 1200 ft

METAR: KFOK 251753Z VRB04KT 10SM OVC012 17/13 A3026 RMK AO2 SLP245 T01670133 10172 20122 51005 $

Hora: 14:37 (18:37 UTC)


TAF: manca

Observacions i pronòstics meteorològics de més de 4000 aeroports (METAR i TAF).

Les estacions disponibles són els punts grocs i vermells al mapa.

Posi el ratolí al punt desitjat per veure el nom de l'estació.

Feu clic per veure les observacions i els pronòstics meteorològics.

Per canviar el mapa: feu clic els botons verds amb una creu de color negre per apropar; al botó verd amb un guió per allunyar la imatge; o en les fletxes verdes per a mapes adjacents.


METAR-TAF: